KPWA/PWA METAR and TAF weather

Enter ICAO airport designator
Station Type Date Time Source
KPWA METAR 2022/06/28 07:53 UTC NOAA

KPWA 280753Z 01006KT 10SM FEW065 BKN095 OVC110 22/14 A3025 RMK AO2 RAB19E30 SLP228 P0000 T02170139


Station Type Date Time Source
KPWA Decoded METAR 2022/06/28 07:53 UTC NOAA

WILEY POST, OK, United States (KPWA) 35-32N 97-39W 397M
Jun 28, 2022 - 03:53 AM EDT / 2022.06.28 0753 UTC
Wind: from the N (010 degrees) at 7 MPH (6 KT):0
Visibility: 10 mile(s):0
Sky conditions: overcast
Precipitation last hour: A trace
Temperature: 71.1 F (21.7 C)
Dew Point: 57.0 F (13.9 C)
Relative Humidity: 61%
Pressure (altimeter): 30.25 in. Hg (1024 hPa)
ob: KPWA 280753Z 01006KT 10SM FEW065 BKN095 OVC110 22/14 A3025 RMK AO2 RAB19E30 SLP228 P0000 T02170139
cycle: 8

Station Type Date Time Source
KPWA TAF UTC NOAA

Error!

Example: see airport list